createdAt,value
2017-12-26T00:00:12.357Z,998.91
2017-12-26T00:00:47.742Z,998.86
2017-12-26T00:01:22.854Z,998.88
2017-12-26T00:01:58.470Z,998.93
2017-12-26T00:02:33.843Z,998.87
2017-12-26T00:03:09.056Z,998.84
2017-12-26T00:03:44.551Z,998.88
2017-12-26T00:04:19.843Z,998.86
2017-12-26T00:04:55.471Z,998.88
2017-12-26T00:05:30.680Z,998.80
2017-12-26T00:06:05.780Z,998.89
2017-12-26T00:06:41.377Z,998.86
2017-12-26T00:07:16.696Z,998.80
2017-12-26T00:07:51.882Z,998.82
2017-12-26T00:08:26.815Z,998.92
2017-12-26T00:09:02.000Z,998.84
2017-12-26T00:09:37.223Z,998.95
2017-12-26T00:10:13.031Z,998.86
2017-12-26T00:10:48.489Z,998.88
2017-12-26T00:11:23.979Z,998.91
2017-12-26T00:11:59.380Z,998.83
2017-12-26T00:12:34.820Z,998.85
2017-12-26T00:13:10.219Z,998.81
2017-12-26T00:13:45.538Z,998.82
2017-12-26T00:14:20.950Z,998.85
2017-12-26T00:14:56.098Z,998.86
2017-12-26T00:15:31.380Z,998.86
2017-12-26T00:16:06.686Z,998.71
2017-12-26T00:16:41.762Z,998.81
2017-12-26T00:17:17.168Z,998.74
2017-12-26T00:17:52.457Z,998.71
2017-12-26T00:18:27.558Z,998.68
2017-12-26T00:19:02.982Z,998.68
2017-12-26T00:19:38.152Z,998.69
2017-12-26T00:20:13.387Z,998.66
2017-12-26T00:20:48.380Z,998.63
2017-12-26T00:21:23.991Z,998.62
2017-12-26T00:21:59.560Z,998.63
2017-12-26T00:22:34.983Z,998.61
2017-12-26T00:23:10.056Z,998.66
2017-12-26T00:23:45.289Z,998.62
2017-12-26T00:24:20.512Z,998.56
2017-12-26T00:24:55.613Z,998.50
2017-12-26T00:25:30.847Z,998.52
2017-12-26T00:26:06.363Z,998.51
2017-12-26T00:26:41.973Z,998.47
2017-12-26T00:27:17.368Z,998.42
2017-12-26T00:27:52.806Z,998.32
2017-12-26T00:28:28.181Z,998.43
2017-12-26T00:29:03.293Z,998.39
2017-12-26T00:29:38.718Z,998.43
2017-12-26T00:30:13.931Z,998.38
2017-12-26T00:30:49.043Z,998.49
2017-12-26T00:31:24.624Z,998.43
2017-12-26T00:31:59.934Z,998.47
2017-12-26T00:32:35.830Z,998.41
2017-12-26T00:33:11.255Z,998.41
2017-12-26T00:33:46.732Z,998.42
2017-12-26T00:34:22.037Z,998.38
2017-12-26T00:34:57.615Z,998.41
2017-12-26T00:35:32.840Z,998.57
2017-12-26T00:36:08.141Z,998.38
2017-12-26T00:36:43.325Z,998.37
2017-12-26T00:37:18.628Z,998.33
2017-12-26T00:37:53.905Z,998.45
2017-12-26T00:38:29.600Z,998.38
2017-12-26T00:39:04.774Z,998.33
2017-12-26T00:39:39.878Z,998.34
2017-12-26T00:40:15.683Z,998.37
2017-12-26T00:40:50.886Z,998.29
2017-12-26T00:41:26.089Z,998.25
2017-12-26T00:42:01.472Z,998.29
2017-12-26T00:42:36.970Z,998.22
2017-12-26T00:43:12.150Z,998.22
2017-12-26T00:43:47.753Z,998.20
2017-12-26T00:44:22.832Z,998.18
2017-12-26T00:44:58.135Z,998.17
2017-12-26T00:45:33.537Z,998.18
2017-12-26T00:46:08.742Z,998.15
2017-12-26T00:46:44.145Z,998.16
2017-12-26T00:47:19.241Z,998.23
2017-12-26T00:47:54.936Z,998.12
2017-12-26T00:48:30.615Z,998.11
2017-12-26T00:49:05.924Z,998.07
2017-12-26T00:49:41.096Z,998.11
2017-12-26T00:50:16.498Z,998.19
2017-12-26T00:50:51.699Z,998.14
2017-12-26T00:51:27.006Z,998.13
2017-12-26T00:52:02.411Z,998.07
2017-12-26T00:52:37.984Z,998.09
2017-12-26T00:53:13.187Z,998.05
2017-12-26T00:53:48.263Z,998.05
2017-12-26T00:54:23.485Z,998.13
2017-12-26T00:54:58.959Z,997.95
2017-12-26T00:55:34.582Z,997.94
2017-12-26T00:56:10.163Z,997.96
2017-12-26T00:56:45.464Z,997.91
2017-12-26T00:57:20.651Z,997.87
2017-12-26T00:57:56.150Z,997.75
2017-12-26T00:58:31.551Z,997.78
2017-12-26T00:59:07.020Z,997.81
2017-12-26T00:59:42.228Z,997.84
2017-12-26T01:00:17.801Z,997.80
2017-12-26T01:00:53.025Z,997.82
2017-12-26T01:01:28.203Z,997.77
2017-12-26T01:02:03.502Z,997.80
2017-12-26T01:02:39.082Z,997.69
2017-12-26T01:03:14.585Z,997.66
2017-12-26T01:03:50.092Z,997.61
2017-12-26T01:04:25.870Z,997.60
2017-12-26T01:05:01.175Z,997.58
2017-12-26T01:05:36.498Z,997.52
2017-12-26T01:06:12.097Z,997.58
2017-12-26T01:06:47.096Z,997.53
2017-12-26T01:07:22.291Z,997.55
2017-12-26T01:07:58.066Z,997.60
2017-12-26T01:08:33.376Z,997.51
2017-12-26T01:09:08.971Z,997.55
2017-12-26T01:09:44.263Z,997.49
2017-12-26T01:10:19.556Z,997.51
2017-12-26T01:10:54.654Z,997.47
2017-12-26T01:11:29.853Z,997.66
2017-12-26T01:12:05.234Z,997.56
2017-12-26T01:12:40.732Z,997.53
2017-12-26T01:13:15.907Z,997.47
2017-12-26T01:13:51.308Z,997.59
2017-12-26T01:14:26.682Z,997.49
2017-12-26T01:15:02.287Z,997.45
2017-12-26T01:15:37.488Z,997.41
2017-12-26T01:16:12.698Z,997.43
2017-12-26T01:16:47.694Z,997.49
2017-12-26T01:17:22.973Z,997.36
2017-12-26T01:17:58.073Z,997.34
2017-12-26T01:18:33.244Z,997.37
2017-12-26T01:19:08.547Z,997.36
2017-12-26T01:19:44.027Z,997.42
2017-12-26T01:20:19.442Z,997.32
2017-12-26T01:20:54.858Z,997.44
2017-12-26T01:21:30.139Z,997.31
2017-12-26T01:22:05.538Z,997.30
2017-12-26T01:22:40.811Z,997.29
2017-12-26T01:23:16.011Z,997.35
2017-12-26T01:23:51.190Z,997.34
2017-12-26T01:24:26.592Z,997.29
2017-12-26T01:25:01.872Z,997.23
2017-12-26T01:25:37.177Z,997.23
2017-12-26T01:26:12.530Z,997.17
2017-12-26T01:26:47.998Z,997.25
2017-12-26T01:27:23.302Z,997.26
2017-12-26T01:27:58.283Z,997.20
2017-12-26T01:28:33.684Z,997.26
2017-12-26T01:29:08.962Z,997.35
2017-12-26T01:29:44.067Z,997.21
2017-12-26T01:30:19.349Z,997.21
2017-12-26T01:30:54.964Z,997.27
2017-12-26T01:31:30.053Z,997.16
2017-12-26T01:32:05.761Z,997.19
2017-12-26T01:32:41.166Z,997.18
2017-12-26T01:33:16.256Z,997.15
2017-12-26T01:33:51.465Z,997.14
2017-12-26T01:34:26.945Z,997.04
2017-12-26T01:35:01.943Z,997.14
2017-12-26T01:35:37.226Z,997.10
2017-12-26T01:36:12.766Z,997.10
2017-12-26T01:36:47.846Z,997.11
2017-12-26T01:37:23.154Z,997.11
2017-12-26T01:37:58.863Z,997.09
2017-12-26T01:38:34.342Z,997.02
2017-12-26T01:39:09.437Z,997.09
2017-12-26T01:39:44.712Z,997.00
2017-12-26T01:40:20.007Z,997.00
2017-12-26T01:40:55.387Z,997.03
2017-12-26T01:41:30.510Z,997.01
2017-12-26T01:42:06.185Z,996.99
2017-12-26T01:42:41.600Z,996.96
2017-12-26T01:43:16.976Z,997.07
2017-12-26T01:43:52.287Z,996.95
2017-12-26T01:44:27.695Z,996.94
2017-12-26T01:45:02.876Z,996.94
2017-12-26T01:45:37.976Z,996.90
2017-12-26T01:46:13.654Z,996.92
2017-12-26T01:46:48.924Z,996.91
2017-12-26T01:47:24.303Z,996.94
2017-12-26T01:47:59.799Z,996.85
2017-12-26T01:48:34.875Z,996.88
2017-12-26T01:49:10.274Z,996.83
2017-12-26T01:49:45.578Z,996.89
2017-12-26T01:50:20.755Z,996.90
2017-12-26T01:50:56.355Z,996.81
2017-12-26T01:51:31.450Z,996.79
2017-12-26T01:52:06.755Z,996.78
2017-12-26T01:52:42.227Z,996.74
2017-12-26T01:53:17.627Z,996.75
2017-12-26T01:53:53.400Z,996.75
2017-12-26T01:54:28.799Z,996.73
2017-12-26T01:55:04.013Z,996.73
2017-12-26T01:55:39.485Z,996.74
2017-12-26T01:56:14.810Z,996.74
2017-12-26T01:56:50.084Z,996.72
2017-12-26T01:57:25.685Z,996.74
2017-12-26T01:58:00.968Z,996.70
2017-12-26T01:58:36.163Z,996.68
2017-12-26T01:59:11.445Z,996.64
2017-12-26T01:59:46.645Z,996.67
2017-12-26T02:00:21.749Z,996.62
2017-12-26T02:00:56.925Z,996.59
2017-12-26T02:01:32.152Z,996.56
2017-12-26T02:02:07.330Z,996.60
2017-12-26T02:02:43.128Z,996.51
2017-12-26T02:03:18.510Z,996.46
2017-12-26T02:03:54.004Z,996.49
2017-12-26T02:04:28.881Z,996.49
2017-12-26T02:05:04.475Z,996.46
2017-12-26T02:05:39.651Z,996.47
2017-12-26T02:06:15.179Z,996.46
2017-12-26T02:06:50.779Z,996.48
2017-12-26T02:07:25.958Z,996.44
2017-12-26T02:08:01.358Z,996.44
2017-12-26T02:08:36.742Z,996.45
2017-12-26T02:09:11.948Z,996.41
2017-12-26T02:09:47.422Z,996.44
2017-12-26T02:10:22.538Z,996.42
2017-12-26T02:10:57.906Z,996.36
2017-12-26T02:11:33.633Z,996.33
2017-12-26T02:12:08.843Z,996.27
2017-12-26T02:12:44.022Z,996.25
2017-12-26T02:13:19.422Z,996.29
2017-12-26T02:13:54.509Z,996.22
2017-12-26T02:14:30.015Z,996.17
2017-12-26T02:15:05.290Z,996.23
2017-12-26T02:15:40.494Z,996.20
2017-12-26T02:16:15.777Z,996.19
2017-12-26T02:16:51.010Z,996.14
2017-12-26T02:17:26.312Z,996.13
2017-12-26T02:18:01.407Z,996.11
2017-12-26T02:18:36.902Z,996.07
2017-12-26T02:19:12.371Z,996.15
2017-12-26T02:19:47.777Z,996.07
2017-12-26T02:20:23.248Z,996.04
2017-12-26T02:20:58.459Z,996.06
2017-12-26T02:21:33.937Z,996.04
2017-12-26T02:22:09.363Z,996.02
2017-12-26T02:22:44.942Z,995.97
2017-12-26T02:23:20.350Z,996.00
2017-12-26T02:23:55.754Z,995.96
2017-12-26T02:24:31.027Z,995.94
2017-12-26T02:25:06.335Z,995.92
2017-12-26T02:25:41.713Z,995.88
2017-12-26T02:26:16.915Z,995.87
2017-12-26T02:26:51.991Z,995.91
2017-12-26T02:27:27.430Z,995.88
2017-12-26T02:28:03.106Z,995.87
2017-12-26T02:28:38.410Z,995.88
2017-12-26T02:29:14.021Z,995.84
2017-12-26T02:29:49.100Z,995.82
2017-12-26T02:30:24.201Z,995.83
2017-12-26T02:30:59.273Z,995.79
2017-12-26T02:31:34.766Z,995.80
2017-12-26T02:32:09.948Z,995.81
2017-12-26T02:32:45.073Z,995.80
2017-12-26T02:33:20.562Z,995.79
2017-12-26T02:33:55.762Z,995.78
2017-12-26T02:34:30.968Z,995.76
2017-12-26T02:35:06.347Z,995.71
2017-12-26T02:35:41.450Z,995.73
2017-12-26T02:36:16.834Z,995.71
2017-12-26T02:36:52.133Z,995.64
2017-12-26T02:37:27.619Z,995.66
2017-12-26T02:38:02.961Z,995.59
2017-12-26T02:38:38.546Z,995.59
2017-12-26T02:39:13.951Z,995.59
2017-12-26T02:39:49.331Z,995.55
2017-12-26T02:40:28.012Z,995.57
2017-12-26T02:41:03.218Z,995.54
2017-12-26T02:41:38.412Z,995.50
2017-12-26T02:42:13.621Z,995.52
2017-12-26T02:42:48.899Z,995.49
2017-12-26T02:43:24.132Z,995.51
2017-12-26T02:43:59.529Z,995.44
2017-12-26T02:44:34.747Z,995.48
2017-12-26T02:45:10.069Z,995.42
2017-12-26T02:45:45.458Z,995.40
2017-12-26T02:46:20.568Z,995.38
2017-12-26T02:46:55.876Z,995.41
2017-12-26T02:47:31.463Z,995.29
2017-12-26T02:48:06.739Z,995.30
2017-12-26T02:48:42.167Z,995.25
2017-12-26T02:49:17.645Z,995.27
2017-12-26T02:49:52.763Z,995.22
2017-12-26T02:50:27.859Z,995.25
2017-12-26T02:51:03.174Z,995.22
2017-12-26T02:51:38.399Z,995.27
2017-12-26T02:52:13.890Z,995.18
2017-12-26T02:52:49.315Z,995.21
2017-12-26T02:53:24.404Z,995.17
2017-12-26T02:53:59.840Z,995.21
2017-12-26T02:54:35.022Z,995.17
2017-12-26T02:55:10.041Z,995.09
2017-12-26T02:55:45.638Z,995.08
2017-12-26T02:56:20.948Z,995.08
2017-12-26T02:56:56.169Z,995.01
2017-12-26T02:57:31.659Z,994.96
2017-12-26T02:58:06.888Z,995.00
2017-12-26T02:58:42.276Z,994.93
2017-12-26T02:59:17.721Z,994.91
2017-12-26T02:59:53.004Z,994.87
2017-12-26T03:00:28.115Z,994.85
2017-12-26T03:01:03.401Z,994.85
2017-12-26T03:01:38.614Z,994.86
2017-12-26T03:02:13.723Z,994.82
2017-12-26T03:02:48.926Z,994.82
2017-12-26T03:03:24.446Z,994.81
2017-12-26T03:03:59.641Z,994.82
2017-12-26T03:04:35.383Z,994.78
2017-12-26T03:05:10.585Z,994.79
2017-12-26T03:05:45.991Z,994.76
2017-12-26T03:06:21.670Z,994.75
2017-12-26T03:06:57.072Z,994.74
2017-12-26T03:07:32.650Z,994.74
2017-12-26T03:08:07.760Z,994.67
2017-12-26T03:08:43.161Z,994.72
2017-12-26T03:09:18.541Z,994.69
2017-12-26T03:09:53.876Z,994.68
2017-12-26T03:10:29.561Z,994.66
2017-12-26T03:11:04.860Z,994.65
2017-12-26T03:11:40.442Z,994.60
2017-12-26T03:12:15.847Z,994.65
2017-12-26T03:12:50.824Z,994.60
2017-12-26T03:13:26.178Z,994.60
2017-12-26T03:14:01.485Z,994.58
2017-12-26T03:14:36.564Z,994.58
2017-12-26T03:15:12.007Z,994.57
2017-12-26T03:15:47.185Z,994.57
2017-12-26T03:16:22.483Z,994.58
2017-12-26T03:16:57.875Z,994.53
2017-12-26T03:17:33.094Z,994.56
2017-12-26T03:18:08.187Z,994.49
2017-12-26T03:18:43.609Z,994.46
2017-12-26T03:19:19.031Z,994.46
2017-12-26T03:19:54.011Z,994.44
2017-12-26T03:20:29.355Z,994.40
2017-12-26T03:21:04.726Z,994.44
2017-12-26T03:21:39.844Z,994.44
2017-12-26T03:22:15.124Z,994.39
2017-12-26T03:22:50.428Z,994.37
2017-12-26T03:23:25.804Z,994.36
2017-12-26T03:24:01.205Z,994.35
2017-12-26T03:24:36.696Z,994.32
2017-12-26T03:25:11.715Z,994.28
2017-12-26T03:25:47.369Z,994.28
2017-12-26T03:26:22.553Z,994.28
2017-12-26T03:26:57.776Z,994.27
2017-12-26T03:27:33.177Z,994.26
2017-12-26T03:28:08.390Z,994.25
2017-12-26T03:28:43.662Z,994.25
2017-12-26T03:29:19.060Z,994.25
2017-12-26T03:29:54.450Z,994.24
2017-12-26T03:30:29.659Z,994.20
2017-12-26T03:31:05.200Z,994.21
2017-12-26T03:31:40.792Z,994.15
2017-12-26T03:32:16.107Z,994.14
2017-12-26T03:32:51.107Z,994.09
2017-12-26T03:33:26.416Z,994.09
2017-12-26T03:34:01.813Z,994.09
2017-12-26T03:34:37.120Z,994.04
2017-12-26T03:35:12.420Z,994.07
2017-12-26T03:35:47.613Z,993.98
2017-12-26T03:36:22.950Z,993.99
2017-12-26T03:36:58.144Z,994.00
2017-12-26T03:37:33.550Z,993.98
2017-12-26T03:38:08.932Z,993.98
2017-12-26T03:38:44.246Z,993.93
2017-12-26T03:39:19.838Z,993.97
2017-12-26T03:39:55.457Z,993.93
2017-12-26T03:40:30.959Z,993.92
2017-12-26T03:41:06.082Z,993.95
2017-12-26T03:41:41.293Z,993.94
2017-12-26T03:42:16.815Z,993.91
2017-12-26T03:42:52.016Z,993.92
2017-12-26T03:43:27.311Z,993.90
2017-12-26T03:44:02.607Z,993.89
2017-12-26T03:44:38.379Z,993.92
2017-12-26T03:45:13.689Z,993.85
2017-12-26T03:45:48.987Z,993.87
2017-12-26T03:46:24.110Z,993.82
2017-12-26T03:46:59.429Z,993.80
2017-12-26T03:47:34.838Z,993.78
2017-12-26T03:48:10.064Z,993.74
2017-12-26T03:48:45.347Z,993.76
2017-12-26T03:49:20.685Z,993.71
2017-12-26T03:49:56.270Z,993.69
2017-12-26T03:50:31.581Z,993.69
2017-12-26T03:51:07.763Z,993.67
2017-12-26T03:51:42.964Z,993.65
2017-12-26T03:52:18.192Z,993.54
2017-12-26T03:52:53.322Z,993.52
2017-12-26T03:53:28.610Z,993.49
2017-12-26T03:54:03.989Z,993.48
2017-12-26T03:54:39.095Z,993.50
2017-12-26T03:55:14.481Z,993.46
2017-12-26T03:55:49.993Z,993.35
2017-12-26T03:56:25.587Z,993.34
2017-12-26T03:57:00.887Z,993.35
2017-12-26T03:57:36.221Z,993.32
2017-12-26T03:58:11.347Z,993.27
2017-12-26T03:58:46.853Z,993.21
2017-12-26T03:59:22.146Z,993.22
2017-12-26T03:59:57.655Z,993.25
2017-12-26T04:00:33.141Z,993.24
2017-12-26T04:01:08.455Z,993.24
2017-12-26T04:01:43.741Z,993.17
2017-12-26T04:02:19.150Z,993.19
2017-12-26T04:02:54.582Z,993.39
2017-12-26T04:03:29.806Z,993.16
2017-12-26T04:04:04.904Z,993.14
2017-12-26T04:04:40.101Z,993.18
2017-12-26T04:05:15.410Z,993.05
2017-12-26T04:05:50.689Z,993.04
2017-12-26T04:06:26.492Z,993.19
2017-12-26T04:07:01.997Z,993.01
2017-12-26T04:07:37.223Z,992.91
2017-12-26T04:08:12.330Z,992.97
2017-12-26T04:08:47.557Z,992.95
2017-12-26T04:09:23.338Z,992.97
2017-12-26T04:09:58.955Z,992.93
2017-12-26T04:10:34.660Z,992.91
2017-12-26T04:11:10.071Z,992.91
2017-12-26T04:11:45.266Z,992.89
2017-12-26T04:12:20.859Z,992.92
2017-12-26T04:12:56.470Z,992.89
2017-12-26T04:13:32.086Z,992.83
2017-12-26T04:14:07.595Z,992.84
2017-12-26T04:14:43.087Z,992.76
2017-12-26T04:15:18.510Z,992.88
2017-12-26T04:15:54.215Z,992.77
2017-12-26T04:16:29.508Z,992.76
2017-12-26T04:17:04.816Z,992.77
2017-12-26T04:17:40.247Z,992.76
2017-12-26T04:18:15.859Z,992.75
2017-12-26T04:18:51.269Z,992.74
2017-12-26T04:19:26.693Z,992.79
2017-12-26T04:20:02.094Z,992.73
2017-12-26T04:20:37.823Z,992.70
2017-12-26T04:21:13.137Z,992.67
2017-12-26T04:21:48.633Z,992.63
2017-12-26T04:22:23.850Z,992.59
2017-12-26T04:22:59.161Z,992.57
2017-12-26T04:23:34.407Z,992.55
2017-12-26T04:24:09.580Z,992.57
2017-12-26T04:24:45.017Z,992.52
2017-12-26T04:25:20.513Z,992.55
2017-12-26T04:25:56.019Z,992.51
2017-12-26T04:26:31.333Z,992.51
2017-12-26T04:27:06.514Z,992.45
2017-12-26T04:27:41.821Z,992.55
2017-12-26T04:28:17.521Z,992.48
2017-12-26T04:28:53.259Z,992.56
2017-12-26T04:29:28.555Z,992.45
2017-12-26T04:30:03.868Z,992.48
2017-12-26T04:30:39.255Z,992.43
2017-12-26T04:31:14.566Z,992.40
2017-12-26T04:31:50.277Z,992.38
2017-12-26T04:32:25.777Z,992.42
2017-12-26T04:33:00.807Z,992.51
2017-12-26T04:33:36.702Z,992.40
2017-12-26T04:34:12.051Z,992.37
2017-12-26T04:34:47.228Z,992.34
2017-12-26T04:35:22.515Z,992.41
2017-12-26T04:35:58.010Z,992.27
2017-12-26T04:36:33.143Z,992.33
2017-12-26T04:37:08.158Z,992.40
2017-12-26T04:37:43.642Z,992.34
2017-12-26T04:38:18.879Z,992.24
2017-12-26T04:38:54.152Z,992.31
2017-12-26T04:39:29.680Z,992.37
2017-12-26T04:40:05.078Z,992.34
2017-12-26T04:40:40.505Z,992.44
2017-12-26T04:41:16.106Z,992.36
2017-12-26T04:41:51.518Z,992.32
2017-12-26T04:42:26.929Z,992.32
2017-12-26T04:43:02.239Z,992.28
2017-12-26T04:43:37.460Z,992.24
2017-12-26T04:44:13.334Z,992.36
2017-12-26T04:44:48.792Z,992.31
2017-12-26T04:45:23.881Z,992.31
2017-12-26T04:45:59.491Z,992.29
2017-12-26T04:46:34.790Z,992.30
2017-12-26T04:47:10.223Z,992.21
2017-12-26T04:47:45.804Z,992.25
2017-12-26T04:48:21.022Z,992.17
2017-12-26T04:48:56.449Z,992.19
2017-12-26T04:49:32.038Z,992.20
2017-12-26T04:50:07.872Z,992.15
2017-12-26T04:50:43.278Z,992.14
2017-12-26T04:51:18.597Z,992.17
2017-12-26T04:51:54.178Z,992.15
2017-12-26T04:52:29.323Z,992.19
2017-12-26T04:53:04.998Z,992.13
2017-12-26T04:53:40.349Z,992.24
2017-12-26T04:54:15.662Z,992.13
2017-12-26T04:54:51.143Z,992.18
2017-12-26T04:55:26.475Z,992.09
2017-12-26T04:56:01.564Z,992.09
2017-12-26T04:56:36.984Z,992.19
2017-12-26T04:57:12.171Z,992.03
2017-12-26T04:57:47.595Z,992.04
2017-12-26T04:58:22.886Z,992.04
2017-12-26T04:58:58.224Z,992.05
2017-12-26T04:59:33.808Z,992.05
2017-12-26T05:00:09.315Z,991.94
2017-12-26T05:00:44.663Z,992.03
2017-12-26T05:01:19.844Z,991.97
2017-12-26T05:01:55.667Z,991.97
2017-12-26T05:02:30.956Z,991.98
2017-12-26T05:03:05.986Z,991.94
2017-12-26T05:03:41.582Z,991.95
2017-12-26T05:04:16.706Z,991.94
2017-12-26T05:04:51.998Z,992.00
2017-12-26T05:05:27.523Z,991.85
2017-12-26T05:06:02.866Z,991.89
2017-12-26T05:06:38.140Z,991.85
2017-12-26T05:07:13.544Z,991.83
2017-12-26T05:07:48.731Z,991.85
2017-12-26T05:08:24.230Z,991.84
2017-12-26T05:08:59.618Z,991.79
2017-12-26T05:09:35.134Z,991.81
2017-12-26T05:10:10.522Z,991.73
2017-12-26T05:10:46.055Z,991.70
2017-12-26T05:11:21.384Z,991.77
2017-12-26T05:11:56.785Z,991.79
2017-12-26T05:12:32.100Z,991.67
2017-12-26T05:13:07.415Z,991.73
2017-12-26T05:13:42.416Z,991.70
2017-12-26T05:14:17.717Z,991.62
2017-12-26T05:14:53.124Z,991.66
2017-12-26T05:15:28.611Z,991.57
2017-12-26T05:16:04.057Z,991.60
2017-12-26T05:16:39.345Z,991.60
2017-12-26T05:17:14.849Z,991.64
2017-12-26T05:17:50.537Z,991.58
2017-12-26T05:18:26.070Z,991.66
2017-12-26T05:19:01.345Z,991.61
2017-12-26T05:19:36.767Z,991.58
2017-12-26T05:20:12.157Z,991.57
2017-12-26T05:20:47.573Z,991.43
2017-12-26T05:21:22.894Z,991.54
2017-12-26T05:21:58.519Z,991.49
2017-12-26T05:22:34.022Z,991.44
2017-12-26T05:23:09.235Z,991.60
2017-12-26T05:23:44.630Z,991.49
2017-12-26T05:24:19.960Z,991.42
2017-12-26T05:24:55.147Z,991.44
2017-12-26T05:25:30.368Z,991.34
2017-12-26T05:26:05.867Z,991.29
2017-12-26T05:26:41.017Z,991.36
2017-12-26T05:27:16.628Z,991.40
2017-12-26T05:27:51.719Z,991.36
2017-12-26T05:28:27.331Z,991.30
2017-12-26T05:29:02.735Z,991.32
2017-12-26T05:29:38.148Z,991.33
2017-12-26T05:30:13.552Z,991.34
2017-12-26T05:30:48.912Z,991.36
2017-12-26T05:31:24.483Z,991.41
2017-12-26T05:31:59.726Z,991.52
2017-12-26T05:32:35.160Z,991.36
2017-12-26T05:33:10.631Z,991.38
2017-12-26T05:33:46.359Z,991.40
2017-12-26T05:34:21.546Z,991.35
2017-12-26T05:34:56.970Z,991.36
2017-12-26T05:35:31.960Z,991.49
2017-12-26T05:36:07.496Z,991.45
2017-12-26T05:36:42.976Z,991.41
2017-12-26T05:37:18.526Z,991.30
2017-12-26T05:37:53.902Z,991.41
2017-12-26T05:38:29.418Z,991.44
2017-12-26T05:39:04.728Z,991.38
2017-12-26T05:39:39.905Z,991.35
2017-12-26T05:40:15.321Z,991.26
2017-12-26T05:40:50.505Z,991.26
2017-12-26T05:41:25.722Z,991.17
2017-12-26T05:42:00.815Z,991.24
2017-12-26T05:42:36.369Z,991.19
2017-12-26T05:43:11.564Z,991.29
2017-12-26T05:43:47.275Z,991.27
2017-12-26T05:44:22.496Z,991.25
2017-12-26T05:44:57.872Z,991.34
2017-12-26T05:45:32.991Z,991.29
2017-12-26T05:46:08.170Z,991.27
2017-12-26T05:46:43.400Z,991.25
2017-12-26T05:47:18.901Z,991.29
2017-12-26T05:47:54.444Z,991.12
2017-12-26T05:48:29.627Z,991.31
2017-12-26T05:49:04.838Z,991.22
2017-12-26T05:49:40.052Z,991.14
2017-12-26T05:50:15.144Z,991.22
2017-12-26T05:50:50.162Z,991.26
2017-12-26T05:51:25.551Z,991.21
2017-12-26T05:52:00.862Z,991.08
2017-12-26T05:52:36.245Z,991.21
2017-12-26T05:53:11.589Z,991.16
2017-12-26T05:53:46.690Z,991.23
2017-12-26T05:54:21.905Z,991.22
2017-12-26T05:54:57.092Z,991.15
2017-12-26T05:55:32.498Z,991.18
2017-12-26T05:56:07.903Z,991.22
2017-12-26T05:56:43.292Z,991.16
2017-12-26T05:57:18.946Z,991.14
2017-12-26T05:57:54.111Z,991.15
2017-12-26T05:58:29.660Z,991.14
2017-12-26T05:59:05.159Z,991.22
2017-12-26T05:59:40.270Z,991.12
2017-12-26T06:00:15.650Z,991.11
2017-12-26T06:00:51.262Z,991.09
2017-12-26T06:01:26.473Z,991.03
2017-12-26T06:02:01.653Z,991.06
2017-12-26T06:02:37.066Z,990.95
2017-12-26T06:03:12.457Z,990.91
2017-12-26T06:03:47.789Z,990.97
2017-12-26T06:04:23.069Z,990.90
2017-12-26T06:04:58.676Z,990.88
2017-12-26T06:05:34.272Z,990.76
2017-12-26T06:06:09.579Z,990.78
2017-12-26T06:06:45.096Z,990.79
2017-12-26T06:07:20.488Z,990.95
2017-12-26T06:07:55.799Z,990.88
2017-12-26T06:08:30.974Z,990.73
2017-12-26T06:09:06.409Z,990.69
2017-12-26T06:09:41.796Z,990.75
2017-12-26T06:10:17.207Z,990.80
2017-12-26T06:10:52.393Z,990.69
2017-12-26T06:11:27.693Z,990.92
2017-12-26T06:12:02.786Z,990.77
2017-12-26T06:12:38.393Z,990.84
2017-12-26T06:13:13.607Z,990.86
2017-12-26T06:13:48.986Z,990.86
2017-12-26T06:14:24.320Z,990.91
2017-12-26T06:14:59.500Z,990.89
2017-12-26T06:15:34.804Z,990.92
2017-12-26T06:16:10.187Z,990.92
2017-12-26T06:16:45.285Z,990.85
2017-12-26T06:17:20.678Z,990.91
2017-12-26T06:17:56.114Z,990.98
2017-12-26T06:18:31.420Z,990.86
2017-12-26T06:19:06.520Z,991.02
2017-12-26T06:19:41.948Z,990.93
2017-12-26T06:20:17.043Z,990.89
2017-12-26T06:20:52.468Z,990.80
2017-12-26T06:21:27.870Z,990.74
2017-12-26T06:22:03.289Z,990.72
2017-12-26T06:22:38.495Z,990.69
2017-12-26T06:23:13.806Z,990.73
2017-12-26T06:23:49.139Z,990.69
2017-12-26T06:24:24.929Z,990.64
2017-12-26T06:25:00.171Z,990.75
2017-12-26T06:25:36.262Z,990.69
2017-12-26T06:26:11.596Z,990.82
2017-12-26T06:26:47.199Z,990.80
2017-12-26T06:27:22.726Z,990.87
2017-12-26T06:27:58.016Z,990.78
2017-12-26T06:28:33.432Z,990.75
2017-12-26T06:29:08.835Z,990.82
2017-12-26T06:29:44.038Z,990.79
2017-12-26T06:30:19.670Z,990.87
2017-12-26T06:30:54.753Z,990.87
2017-12-26T06:31:30.258Z,990.92
2017-12-26T06:32:05.633Z,990.91
2017-12-26T06:32:41.147Z,990.90
2017-12-26T06:33:16.633Z,990.98
2017-12-26T06:33:52.038Z,990.94
2017-12-26T06:34:27.327Z,991.05
2017-12-26T06:35:02.664Z,990.96
2017-12-26T06:35:38.116Z,990.93
2017-12-26T06:36:13.597Z,990.95
2017-12-26T06:36:49.109Z,990.94
2017-12-26T06:37:24.692Z,990.97
2017-12-26T06:38:00.192Z,990.99
2017-12-26T06:38:35.369Z,991.02
2017-12-26T06:39:10.892Z,991.03
2017-12-26T06:39:46.078Z,991.06
2017-12-26T06:40:21.505Z,991.09
2017-12-26T06:40:56.954Z,991.07
2017-12-26T06:41:32.539Z,991.02
2017-12-26T06:42:07.842Z,991.09
2017-12-26T06:42:43.035Z,991.18
2017-12-26T06:43:18.265Z,991.18
2017-12-26T06:43:53.582Z,991.15
2017-12-26T06:44:28.993Z,991.21
2017-12-26T06:45:04.484Z,991.11
2017-12-26T06:45:40.006Z,991.20
2017-12-26T06:46:15.465Z,991.23
2017-12-26T06:46:50.655Z,991.28
2017-12-26T06:47:25.858Z,991.22
2017-12-26T06:48:01.363Z,991.20
2017-12-26T06:48:36.766Z,991.23
2017-12-26T06:49:11.864Z,991.23
2017-12-26T06:49:47.085Z,991.24
2017-12-26T06:50:22.387Z,991.21
2017-12-26T06:50:57.582Z,991.30
2017-12-26T06:51:33.232Z,991.22
2017-12-26T06:52:08.921Z,991.25
2017-12-26T06:52:44.340Z,991.27
2017-12-26T06:53:19.632Z,991.25
2017-12-26T06:53:54.828Z,991.29
2017-12-26T06:54:30.327Z,991.27
2017-12-26T06:55:05.947Z,991.26
2017-12-26T06:55:41.135Z,991.32
2017-12-26T06:56:16.666Z,991.29
2017-12-26T06:56:51.979Z,991.24
2017-12-26T06:57:27.405Z,991.26
2017-12-26T06:58:02.517Z,991.22
2017-12-26T06:58:37.412Z,991.35
2017-12-26T06:59:12.842Z,991.43
2017-12-26T06:59:47.932Z,991.35
2017-12-26T07:00:23.437Z,991.37
2017-12-26T07:00:58.624Z,991.20
2017-12-26T07:01:33.754Z,991.27
2017-12-26T07:02:09.275Z,991.34
2017-12-26T07:02:44.506Z,991.43
2017-12-26T07:03:20.030Z,991.44
2017-12-26T07:03:55.433Z,991.38
2017-12-26T07:04:30.936Z,991.50
2017-12-26T07:05:06.233Z,991.47
2017-12-26T07:05:41.552Z,991.51
2017-12-26T07:06:16.729Z,991.55
2017-12-26T07:06:52.041Z,991.56
2017-12-26T07:07:27.670Z,991.55
2017-12-26T07:08:02.995Z,991.52
2017-12-26T07:08:38.487Z,991.60
2017-12-26T07:09:13.780Z,991.67
2017-12-26T07:09:49.224Z,991.51
2017-12-26T07:10:24.408Z,991.60
2017-12-26T07:10:59.641Z,991.55
2017-12-26T07:11:35.046Z,991.65
2017-12-26T07:12:10.582Z,991.50
2017-12-26T07:12:46.027Z,991.57
2017-12-26T07:13:21.253Z,991.59
2017-12-26T07:13:56.640Z,991.63
2017-12-26T07:14:32.111Z,991.66
2017-12-26T07:15:07.345Z,991.59
2017-12-26T07:15:43.203Z,991.66
2017-12-26T07:16:18.789Z,991.59
2017-12-26T07:16:54.289Z,991.52
2017-12-26T07:17:29.525Z,991.56
2017-12-26T07:18:04.953Z,991.60
2017-12-26T07:18:40.278Z,991.58
2017-12-26T07:19:15.577Z,991.70
2017-12-26T07:19:50.939Z,991.54
2017-12-26T07:20:26.157Z,991.65
2017-12-26T07:21:01.261Z,991.57